| time (UTC) | temp F | wind direction | speed knots | gust knots | rain 1hr in | rain 24hr in | rain mn in | humidity % | barometer mb |
| 20260507073212 | 46 | 232 | 12.2 | 0.0 | 0.00 | 0.00 | 0.05 | 93 | 1013.2 |
| 20260507070212 | 45 | 210 | 13.0 | 0.0 | 0.00 | 0.00 | 0.04 | 93 | 1013.0 |
| 20260507063211 | 45 | 219 | 12.2 | 0.0 | 0.00 | 0.00 | 0.03 | 92 | 1012.6 |
| 20260507060211 | 46 | 240 | 13.9 | 0.0 | 0.00 | 0.00 | 0.01 | 92 | 1012.5 |
| 20260507053211 | 45 | 218 | 12.2 | 0.0 | 0.00 | 0.00 | 0.01 | 92 | 1012.3 |
| 20260507050213 | 45 | 229 | 12.2 | 0.0 | 0.00 | 0.00 | 0.01 | 92 | 1011.9 |
| 20260507043211 | 44 | 202 | 11.3 | 0.0 | 0.00 | 0.00 | 0.01 | 92 | 1011.6 |
| 20260507040216 | 44 | 184 | 11.3 | 0.0 | 0.00 | 0.00 | 0.00 | 92 | 1011.2 |
| 20260507033211 | 43 | 221 | 8.7 | 0.0 | 0.00 | 0.00 | 0.00 | 92 | 1011.0 |
| 20260507030211 | 44 | 229 | 11.3 | 0.0 | 0.00 | 0.00 | 0.00 | 91 | 1010.9 |
| 20260507023211 | 44 | 205 | 13.9 | 0.0 | 0.00 | 0.00 | 0.00 | 91 | 1011.0 |
| 20260507020211 | 44 | 254 | 13.0 | 0.0 | 0.00 | 0.00 | 0.00 | 93 | 1010.9 |
| 20260507013212 | 43 | 211 | 9.6 | 0.0 | 0.00 | 0.00 | 0.00 | 94 | 1010.7 |
| 20260507010211 | 42 | 187 | 3.5 | 0.0 | 0.00 | 0.00 | 0.00 | 93 | 1010.6 |
| 20260507003209 | 42 | 217 | 4.3 | 0.0 | 0.00 | 0.00 | 0.00 | 93 | 1010.3 |
| 20260507000209 | 43 | 193 | 5.2 | 0.0 | 0.00 | 0.00 | 0.00 | 93 | 1010.4 |
| 20260506233209 | 42 | 182 | 6.1 | 0.0 | 0.00 | 0.00 | 0.00 | 92 | 1010.4 |
| 20260506230209 | 43 | 221 | 7.0 | 0.0 | 0.00 | 0.00 | 0.00 | 92 | 1010.1 |
| 20260506223209 | 45 | 211 | 8.7 | 0.0 | 0.00 | 0.00 | 0.00 | 91 | 1010.1 |
| 20260506213209 | 45 | 173 | 12.2 | 0.0 | 0.00 | 0.00 | 0.01 | 90 | 1009.8 |
| 20260506210210 | 45 | 216 | 5.2 | 0.0 | 0.00 | 0.00 | 0.01 | 91 | 1009.7 |
| 20260506203210 | 46 | 211 | 9.6 | 0.0 | 0.00 | 0.00 | 0.01 | 90 | 1009.6 |
| 20260506200210 | 46 | 186 | 12.2 | 0.0 | 0.00 | 0.00 | 0.01 | 91 | 1009.3 |
| 20260506193215 | 47 | 204 | 9.6 | 0.0 | 0.00 | 0.00 | 0.01 | 89 | 1009.2 |
| 20260506190211 | 47 | 213 | 10.4 | 0.0 | 0.00 | 0.00 | 0.01 | 90 | 1008.7 |
| 20260506183209 | 46 | 225 | 13.9 | 0.0 | 0.00 | 0.00 | 0.01 | 89 | 1008.2 |
| 20260506180216 | 48 | 188 | 10.4 | 0.0 | 0.00 | 0.00 | 0.01 | 89 | 1007.8 |
| 20260506173210 | 48 | 257 | 17.4 | 0.0 | 0.00 | 0.00 | 0.01 | 88 | 1008.0 |
| 20260506170215 | 48 | 209 | 15.6 | 0.0 | 0.00 | 0.00 | 0.01 | 88 | 1007.4 |
| 20260506163210 | 48 | 210 | 15.6 | 0.0 | 0.00 | 0.00 | 0.01 | 87 | 1007.2 |
| 20260506160210 | 48 | 214 | 19.1 | 0.0 | 0.00 | 0.00 | 0.01 | 87 | 1007.1 |
| 20260506153210 | 47 | 231 | 27.8 | 0.0 | 0.00 | 0.00 | 0.01 | 89 | 1006.5 |
| 20260506150210 | 49 | 171 | 26.1 | 0.0 | 0.00 | 0.00 | 0.01 | 90 | 1005.6 |
| 20260506143210 | 57 | 209 | 8.7 | 0.0 | 0.00 | 0.00 | 0.00 | 78 | 1004.6 |
| 20260506140210 | 60 | 144 | 7.8 | 0.0 | 0.00 | 0.00 | 0.00 | 72 | 1004.3 |
| 20260506133211 | 56 | 42 | 5.2 | 0.0 | 0.00 | 0.00 | 0.00 | 82 | 1004.1 |
| 20260506130211 | 57 | 139 | 8.7 | 0.0 | 0.00 | 0.00 | 0.00 | 73 | 1005.1 |
| 20260506123210 | 59 | 98 | 6.1 | 0.0 | 0.00 | 0.00 | 0.00 | 65 | 1004.7 |
| 20260506120210 | 59 | 42 | 6.1 | 0.0 | 0.00 | 0.00 | 0.00 | 69 | 1004.4 |
| 20260506113217 | 58 | 65 | 8.7 | 0.0 | 0.00 | 0.00 | 0.00 | 70 | 1004.3 |
| 20260506110210 | 59 | 96 | 7.8 | 0.0 | 0.00 | 0.00 | 0.00 | 68 | 1004.7 |
| 20260506100213 | 57 | 67 | 7.0 | 0.0 | 0.00 | 0.00 | 0.00 | 73 | 1005.1 |
| 20260506093211 | 57 | 135 | 6.1 | 0.0 | 0.00 | 0.00 | 0.00 | 73 | 1005.5 |
| 20260506090211 | 56 | 5 | 0.9 | 0.0 | 0.00 | 0.00 | 0.00 | 71 | 1005.5 |
| 20260506083211 | 56 | 5 | 3.5 | 0.0 | 0.00 | 0.00 | 0.00 | 77 | 1005.1 |
| 20260506080212 | 54 | 248 | 1.7 | 0.0 | 0.00 | 0.00 | 0.00 | 80 | 1005.4 |